Time;durP1;ratioP1;P1;durP2;ratioP2;P2;SDS_P1;SDS_P2;PMS_P1;PMS_P2;Temp;Humidity;BMP_temperature;BMP_pressure;BME280_temperature;BME280_humidity;BME280_pressure;Samples;Min_cycle;Max_cycle;Signal;HPM_P1;HPM_P2
2022/06/14 00:00:55;;;;;;;3.90;2.08;;;;;;;;;;5065647;28;20552;-62
2022/06/14 00:03:29;;;;;;;5.30;1.70;;;;;;;;;;5070697;28;20101;-62
2022/06/14 00:05:57;;;;;;;3.83;1.77;;;;;;;;;;5071962;28;20032;-62
2022/06/14 00:08:25;;;;;;;5.03;1.60;;;;;;;;;;5071464;28;20070;-62
2022/06/14 00:10:51;;;;;;;4.03;1.50;;;;;;;;;;5071790;28;20039;-62
2022/06/14 00:13:18;;;;;;;7.07;1.88;;;;;;;;;;5057061;28;20451;-62
2022/06/14 00:15:45;;;;;;;5.13;1.60;;;;;;;;;;5051629;28;20031;-62
2022/06/14 00:18:12;;;;;;;3.88;1.73;;;;;;;;;;5052008;28;20029;-62
2022/06/14 00:20:39;;;;;;;4.20;1.80;;;;;;;;;;5056871;28;20123;-62
2022/06/14 00:23:05;;;;;;;2.50;1.50;;;;;;;;;;5071800;28;20029;-62
2022/06/14 00:25:33;;;;;;;3.25;1.77;;;;;;;;;;5071856;28;20024;-62
2022/06/14 00:28:01;;;;;;;3.55;2.40;;;;;;;;;;5066086;28;20041;-62
2022/06/14 00:30:28;;;;;;;5.68;1.40;;;;;;;;;;5055868;28;20024;-62
2022/06/14 00:32:54;;;;;;;5.30;1.75;;;;;;;;;;5060293;28;20020;-62
2022/06/14 00:35:20;;;;;;;4.68;1.67;;;;;;;;;;5075785;28;20039;-62
2022/06/14 00:37:46;;;;;;;6.32;2.63;;;;;;;;;;5075441;28;20035;-62
2022/06/14 00:40:14;;;;;;;2.53;1.60;;;;;;;;;;5075840;28;20042;-62
2022/06/14 00:42:41;;;;;;;4.78;1.63;;;;;;;;;;5058766;28;20492;-62
2022/06/14 00:45:13;;;;;;;5.10;1.50;;;;;;;;;;5055499;28;20037;-62
2022/06/14 00:47:48;;;;;;;4.30;1.65;;;;;;;;;;5074970;28;20131;-62
2022/06/14 00:50:27;;;;;;;2.45;1.60;;;;;;;;;;5075638;28;20439;-62
2022/06/14 00:52:56;;;;;;;3.83;1.70;;;;;;;;;;5075205;28;20090;-62
2022/06/14 00:55:34;;;;;;;3.55;1.67;;;;;;;;;;5060845;28;20013;-62
2022/06/14 00:58:03;;;;;;;4.00;1.70;;;;;;;;;;5054742;28;20107;-62
2022/06/14 01:00:31;;;;;;;4.80;1.73;;;;;;;;;;5055163;28;20421;-62
2022/06/14 01:02:59;;;;;;;3.78;1.70;;;;;;;;;;5070508;28;20064;-62
2022/06/14 01:05:28;;;;;;;3.67;1.90;;;;;;;;;;5074726;28;20090;-62
2022/06/14 01:07:56;;;;;;;4.45;1.55;;;;;;;;;;5074814;28;20032;-62
2022/06/14 01:10:25;;;;;;;6.63;1.85;;;;;;;;;;5059267;28;20040;-62
2022/06/14 01:12:54;;;;;;;2.88;1.60;;;;;;;;;;5054466;28;20031;-62
2022/06/14 01:15:22;;;;;;;2.58;1.63;;;;;;;;;;5055135;28;20048;-62
2022/06/14 01:17:50;;;;;;;2.80;1.92;;;;;;;;;;5054577;28;20060;-62
2022/06/14 01:20:18;;;;;;;5.57;1.83;;;;;;;;;;5054955;28;20040;-62
2022/06/14 01:22:45;;;;;;;5.60;1.77;;;;;;;;;;5056519;28;20556;-62
2022/06/14 01:25:11;;;;;;;3.75;2.95;;;;;;;;;;5054482;28;20028;-62
2022/06/14 01:27:38;;;;;;;3.08;1.58;;;;;;;;;;5054743;28;20021;-62
2022/06/14 01:30:26;;;;;;;2.65;1.73;;;;;;;;;;5054621;28;20028;-62
2022/06/14 01:32:55;;;;;;;6.00;1.88;;;;;;;;;;5054530;28;20037;-62
2022/06/14 01:35:23;;;;;;;2.72;1.63;;;;;;;;;;5054630;28;20507;-62
2022/06/14 01:37:51;;;;;;;2.92;1.77;;;;;;;;;;5063021;28;20028;-62
2022/06/14 01:40:18;;;;;;;4.57;1.85;;;;;;;;;;5060813;28;20400;-62
2022/06/14 01:42:44;;;;;;;5.88;1.88;;;;;;;;;;5054375;28;20036;-62
2022/06/14 01:45:24;;;;;;;6.32;1.67;;;;;;;;;;5054433;28;20631;-62
2022/06/14 01:48:05;;;;;;;4.60;1.63;;;;;;;;;;5063829;28;20119;-62
2022/06/14 01:53:46;;;;;;;2.45;1.70;;;;;;;;;;5074374;28;20037;-62
2022/06/14 01:56:12;;;;;;;1.77;1.60;;;;;;;;;;5073448;28;20469;-62
2022/06/14 01:58:52;;;;;;;7.18;2.00;;;;;;;;;;5074157;28;20580;-62
2022/06/14 02:01:31;;;;;;;3.50;1.83;;;;;;;;;;5056061;28;20033;-62
2022/06/14 02:07:00;;;;;;;5.25;1.80;;;;;;;;;;5073744;28;20029;-62
2022/06/14 02:09:29;;;;;;;2.05;1.80;;;;;;;;;;5070889;28;20021;-62
2022/06/14 02:11:57;;;;;;;5.30;2.00;;;;;;;;;;5053690;28;20040;-62
2022/06/14 02:14:49;;;;;;;3.25;1.80;;;;;;;;;;5053947;28;20043;-62
2022/06/14 02:17:23;;;;;;;2.60;1.40;;;;;;;;;;5053219;28;20098;-62
2022/06/14 02:19:57;;;;;;;4.63;2.15;;;;;;;;;;5073519;28;20037;-62
2022/06/14 02:22:25;;;;;;;4.65;2.33;;;;;;;;;;5073804;28;20064;-62
2022/06/14 02:24:57;;;;;;;5.90;1.85;;;;;;;;;;5066451;28;20017;-62
2022/06/14 02:27:23;;;;;;;6.40;2.20;;;;;;;;;;5055060;28;20071;-62
2022/06/14 02:29:57;;;;;;;3.88;2.30;;;;;;;;;;5073392;28;20028;-62
2022/06/14 02:32:27;;;;;;;3.95;1.80;;;;;;;;;;5073511;28;20033;-62
2022/06/14 02:34:59;;;;;;;4.68;2.30;;;;;;;;;;5073438;28;20123;-62
2022/06/14 02:37:31;;;;;;;5.55;2.00;;;;;;;;;;5071661;28;20028;-62
2022/06/14 02:40:00;;;;;;;5.25;2.20;;;;;;;;;;5061420;28;20557;-62
2022/06/14 02:42:30;;;;;;;4.18;2.45;;;;;;;;;;5059238;28;20036;-62
2022/06/14 02:45:02;;;;;;;7.25;2.17;;;;;;;;;;5053208;28;20036;-62
2022/06/14 02:47:49;;;;;;;3.58;2.25;;;;;;;;;;5053435;28;20447;-62
2022/06/14 02:50:47;;;;;;;4.53;1.80;;;;;;;;;;5048344;28;20052;-62
2022/06/14 02:53:23;;;;;;;4.20;2.03;;;;;;;;;;5048141;28;20444;-62
2022/06/14 02:55:54;;;;;;;6.82;1.92;;;;;;;;;;5050801;28;20040;-62
2022/06/14 02:58:32;;;;;;;4.13;2.00;;;;;;;;;;5050404;28;20049;-62
2022/06/14 03:01:07;;;;;;;2.70;1.95;;;;;;;;;;5032903;28;20525;-62
2022/06/14 03:03:48;;;;;;;4.63;1.83;;;;;;;;;;5031022;28;20041;-62
2022/06/14 03:06:32;;;;;;;4.70;3.47;;;;;;;;;;5030849;28;20033;-62
2022/06/14 03:09:03;;;;;;;5.47;2.00;;;;;;;;;;5030601;28;20468;-62
2022/06/14 03:11:39;;;;;;;3.05;1.70;;;;;;;;;;5030930;28;20038;-62
2022/06/14 03:14:08;;;;;;;3.30;1.90;;;;;;;;;;5030655;28;20536;-62
2022/06/14 03:16:42;;;;;;;3.55;1.63;;;;;;;;;;5035056;28;20056;-62
2022/06/14 03:19:26;;;;;;;4.00;2.83;;;;;;;;;;5038840;28;20040;-62
2022/06/14 03:21:57;;;;;;;2.95;1.80;;;;;;;;;;5035843;28;20036;-62
2022/06/14 03:24:23;;;;;;;5.32;2.20;;;;;;;;;;5035581;28;20037;-62
2022/06/14 03:26:49;;;;;;;5.28;2.15;;;;;;;;;;5050575;28;20032;-62
2022/06/14 03:29:29;;;;;;;3.75;2.10;;;;;;;;;;5045724;28;20039;-62
2022/06/14 03:32:02;;;;;;;2.97;2.08;;;;;;;;;;5052045;28;20078;-62
2022/06/14 03:34:32;;;;;;;2.03;1.60;;;;;;;;;;5052500;28;20445;-62
2022/06/14 03:36:58;;;;;;;4.75;2.22;;;;;;;;;;5061631;28;20480;-62
2022/06/14 03:39:29;;;;;;;5.28;1.80;;;;;;;;;;5060495;28;20028;-62
2022/06/14 03:41:55;;;;;;;1.80;1.52;;;;;;;;;;5053125;28;20036;-62
2022/06/14 03:44:23;;;;;;;3.25;1.80;;;;;;;;;;5066932;28;20025;-62
2022/06/14 03:47:07;;;;;;;3.10;1.63;;;;;;;;;;5059571;28;20025;-62
2022/06/14 03:49:33;;;;;;;5.55;1.83;;;;;;;;;;5056935;28;20115;-62
2022/06/14 03:52:03;;;;;;;3.60;1.70;;;;;;;;;;5056777;28;20033;-62
2022/06/14 03:54:48;;;;;;;2.25;1.80;;;;;;;;;;5054486;28;20033;-62
2022/06/14 03:57:33;;;;;;;3.50;1.50;;;;;;;;;;5065955;28;20074;-62
2022/06/14 04:00:12;;;;;;;2.42;1.80;;;;;;;;;;5051804;28;20044;-62
2022/06/14 04:02:53;;;;;;;3.83;2.28;;;;;;;;;;5055765;28;20515;-62
2022/06/14 04:05:27;;;;;;;3.53;1.70;;;;;;;;;;5066257;28;20380;-62
2022/06/14 04:08:02;;;;;;;2.08;1.80;;;;;;;;;;5051432;28;20480;-63
2022/06/14 04:10:31;;;;;;;4.70;1.80;;;;;;;;;;5058009;28;20485;-62
2022/06/14 04:13:09;;;;;;;3.05;1.75;;;;;;;;;;5072507;28;20020;-62
2022/06/14 04:15:54;;;;;;;5.80;2.05;;;;;;;;;;5060865;28;20021;-62
2022/06/14 04:18:35;;;;;;;2.70;1.95;;;;;;;;;;5050379;28;20079;-62
2022/06/14 04:21:06;;;;;;;4.20;2.00;;;;;;;;;;5050453;28;20477;-62
2022/06/14 04:23:37;;;;;;;5.40;1.77;;;;;;;;;;5056437;28;20515;-62
2022/06/14 04:26:21;;;;;;;4.97;1.90;;;;;;;;;;5051348;28;20492;-62
2022/06/14 04:28:55;;;;;;;3.20;1.80;;;;;;;;;;5060427;28;20029;-62
2022/06/14 04:31:30;;;;;;;3.17;1.70;;;;;;;;;;5062099;28;20032;-62
2022/06/14 04:34:03;;;;;;;2.60;2.10;;;;;;;;;;5055829;28;20043;-62
2022/06/14 04:36:32;;;;;;;3.83;1.90;;;;;;;;;;5067555;28;20488;-62
2022/06/14 04:39:04;;;;;;;3.22;1.70;;;;;;;;;;5052669;28;20048;-63
2022/06/14 04:41:32;;;;;;;3.80;1.73;;;;;;;;;;5063753;28;20032;-62
2022/06/14 04:44:10;;;;;;;3.70;1.80;;;;;;;;;;5071024;28;20111;-62
2022/06/14 04:46:39;;;;;;;2.90;1.67;;;;;;;;;;5060098;28;20037;-62
2022/06/14 04:49:10;;;;;;;3.28;1.70;;;;;;;;;;5059287;28;20043;-62
2022/06/14 04:51:46;;;;;;;2.28;1.77;;;;;;;;;;5061335;28;20021;-62
2022/06/14 04:54:24;;;;;;;8.70;1.80;;;;;;;;;;5050856;28;20109;-62
2022/06/14 04:56:56;;;;;;;2.40;1.95;;;;;;;;;;5057294;28;20033;-63
2022/06/14 04:59:34;;;;;;;3.97;2.00;;;;;;;;;;5059823;28;20047;-62
2022/06/14 05:02:04;;;;;;;4.03;2.20;;;;;;;;;;5061354;28;20060;-62
2022/06/14 05:04:38;;;;;;;4.18;1.95;;;;;;;;;;5050365;28;20029;-63
2022/06/14 05:07:04;;;;;;;4.60;1.90;;;;;;;;;;5053721;28;20028;-62
2022/06/14 05:09:32;;;;;;;2.30;1.63;;;;;;;;;;5060821;28;20062;-62
2022/06/14 05:12:10;;;;;;;6.30;1.70;;;;;;;;;;5055745;28;20040;-63
2022/06/14 05:14:53;;;;;;;3.67;1.92;;;;;;;;;;5055091;28;20033;-63
2022/06/14 05:17:26;;;;;;;4.65;2.72;;;;;;;;;;5059423;28;20454;-62
2022/06/14 05:20:02;;;;;;;4.65;2.00;;;;;;;;;;5059460;28;20044;-62
2022/06/14 05:22:36;;;;;;;3.42;1.83;;;;;;;;;;5053182;28;20029;-63
2022/06/14 05:25:04;;;;;;;2.05;1.38;;;;;;;;;;5056229;28;20037;-62
2022/06/14 05:27:37;;;;;;;3.22;2.15;;;;;;;;;;5067929;28;20077;-62
2022/06/14 05:30:03;;;;;;;3.78;1.70;;;;;;;;;;5060253;28;20033;-62
2022/06/14 05:32:41;;;;;;;6.05;2.10;;;;;;;;;;5065896;28;20514;-62
2022/06/14 05:35:13;;;;;;;6.40;2.50;;;;;;;;;;5064865;28;20033;-63
2022/06/14 05:37:39;;;;;;;9.80;2.53;;;;;;;;;;5053358;28;20036;-63
2022/06/14 05:40:18;;;;;;;6.40;2.63;;;;;;;;;;5060738;28;20040;-66
2022/06/14 05:42:48;;;;;;;6.93;2.80;;;;;;;;;;5060193;28;20071;-62
2022/06/14 05:45:18;;;;;;;5.35;3.05;;;;;;;;;;5062361;28;20028;-62
2022/06/14 05:47:52;;;;;;;7.55;2.88;;;;;;;;;;5059649;28;20036;-62
2022/06/14 05:50:23;;;;;;;9.20;3.10;;;;;;;;;;5056911;28;20426;-63
2022/06/14 05:52:49;;;;;;;6.57;3.42;;;;;;;;;;5054118;28;20017;-62
2022/06/14 05:55:15;;;;;;;4.95;2.92;;;;;;;;;;5053702;28;20557;-62
2022/06/14 05:57:45;;;;;;;6.72;2.95;;;;;;;;;;5053615;28;20052;-62
2022/06/14 06:00:16;;;;;;;5.95;2.83;;;;;;;;;;5056640;28;20400;-62
2022/06/14 06:02:45;;;;;;;6.50;3.30;;;;;;;;;;5059282;28;20029;-63
2022/06/14 06:05:17;;;;;;;5.95;3.13;;;;;;;;;;5063207;28;20021;-64
2022/06/14 06:08:00;;;;;;;8.50;3.70;;;;;;;;;;5064246;28;20465;-64
2022/06/14 06:10:32;;;;;;;7.55;3.33;;;;;;;;;;5060526;28;20024;-63
2022/06/14 06:13:02;;;;;;;10.93;4.00;;;;;;;;;;5058674;28;20108;-63
2022/06/14 06:15:47;;;;;;;8.15;3.40;;;;;;;;;;5057420;28;20037;-63
2022/06/14 06:18:15;;;;;;;6.30;4.07;;;;;;;;;;5074304;28;20032;-63
2022/06/14 06:20:42;;;;;;;10.27;4.07;;;;;;;;;;5073964;28;20032;-63
2022/06/14 06:23:17;;;;;;;9.48;3.35;;;;;;;;;;5073491;28;20032;-63
2022/06/14 06:25:49;;;;;;;8.18;4.40;;;;;;;;;;5072091;28;20377;-63
2022/06/14 06:28:22;;;;;;;9.90;4.03;;;;;;;;;;5073881;28;20081;-63
2022/06/14 06:30:55;;;;;;;7.45;3.90;;;;;;;;;;5073027;28;20032;-63
2022/06/14 06:33:22;;;;;;;8.40;3.90;;;;;;;;;;5073589;28;20400;-63
2022/06/14 06:36:07;;;;;;;9.70;4.50;;;;;;;;;;5073290;28;20370;-63
2022/06/14 06:38:49;;;;;;;11.73;5.22;;;;;;;;;;5073203;28;20028;-63
2022/06/14 06:44:05;;;;;;;7.50;3.40;;;;;;;;;;5073429;28;20028;-63
2022/06/14 06:46:36;;;;;;;5.60;3.40;;;;;;;;;;5073076;28;20025;-63
2022/06/14 06:49:04;;;;;;;11.88;3.40;;;;;;;;;;5073103;28;20055;-63
2022/06/14 06:51:34;;;;;;;9.43;3.00;;;;;;;;;;5067816;28;20021;-63
2022/06/14 06:54:39;;;;;;;8.63;3.05;;;;;;;;;;5053270;28;20219;-63
2022/06/14 06:57:06;;;;;;;5.25;2.80;;;;;;;;;;5011091;28;20837;-63
2022/06/14 06:59:39;;;;;;;8.40;2.85;;;;;;;;;;5010749;28;20030;-63
2022/06/14 07:02:12;;;;;;;9.68;2.92;;;;;;;;;;5014831;28;20199;-63
2022/06/14 07:07:24;;;;;;;7.85;2.88;;;;;;;;;;5012518;28;20030;-63
2022/06/14 07:09:59;;;;;;;6.88;2.60;;;;;;;;;;5015389;28;20327;-63
2022/06/14 07:12:39;;;;;;;9.52;3.95;;;;;;;;;;5030713;28;20057;-63
2022/06/14 07:15:29;;;;;;;9.52;3.35;;;;;;;;;;5011754;28;20064;-63
2022/06/14 07:18:01;;;;;;;9.63;3.80;;;;;;;;;;5003503;28;20140;-63
2022/06/14 07:20:35;;;;;;;10.52;2.90;;;;;;;;;;5010945;28;20113;-63
2022/06/14 07:23:21;;;;;;;7.55;2.60;;;;;;;;;;5010924;28;20030;-64
2022/06/14 07:25:51;;;;;;;13.10;3.38;;;;;;;;;;5010817;28;20146;-64
2022/06/14 07:28:38;;;;;;;4.22;2.60;;;;;;;;;;5039933;28;20041;-64
2022/06/14 07:31:06;;;;;;;6.10;2.50;;;;;;;;;;5052570;28;20068;-64
2022/06/14 07:33:33;;;;;;;10.23;3.55;;;;;;;;;;5052286;28;20029;-63
2022/06/14 07:36:02;;;;;;;8.40;2.50;;;;;;;;;;5051834;28;20504;-63
2022/06/14 07:38:34;;;;;;;10.45;2.50;;;;;;;;;;5052300;28;20131;-64
2022/06/14 07:41:07;;;;;;;5.47;2.40;;;;;;;;;;5052457;28;20036;-64
2022/06/14 07:43:33;;;;;;;;;;;;;;;;;;5052360;28;20036;-64
2022/06/14 07:46:02;;;;;;;8.77;2.35;;;;;;;;;;5052125;28;20038;-64
2022/06/14 07:48:36;;;;;;;7.65;2.72;;;;;;;;;;5057410;28;20081;-63
2022/06/14 07:51:07;;;;;;;8.10;2.78;;;;;;;;;;5072283;28;20039;-64
2022/06/14 07:53:43;;;;;;;6.88;2.53;;;;;;;;;;5072211;28;20044;-64
2022/06/14 07:56:16;;;;;;;8.88;2.63;;;;;;;;;;5072452;28;20028;-64
2022/06/14 07:58:45;;;;;;;6.63;2.83;;;;;;;;;;5071459;28;20072;-63
2022/06/14 08:01:14;;;;;;;11.80;2.92;;;;;;;;;;5072194;28;20121;-64
2022/06/14 08:03:49;;;;;;;11.23;2.53;;;;;;;;;;5071773;28;20032;-64
2022/06/14 08:06:17;;;;;;;8.88;2.85;;;;;;;;;;5072302;28;20107;-64
2022/06/14 08:08:44;;;;;;;10.45;2.67;;;;;;;;;;5071754;28;20028;-64
2022/06/14 08:11:16;;;;;;;9.18;3.30;;;;;;;;;;5071980;28;20024;-64
2022/06/14 08:14:09;;;;;;;10.00;2.67;;;;;;;;;;5071903;28;20036;-64
2022/06/14 08:16:36;;;;;;;5.68;2.00;;;;;;;;;;5069892;28;20511;-64
2022/06/14 08:19:09;;;;;;;5.88;2.45;;;;;;;;;;5071980;28;20037;-64
2022/06/14 08:21:40;;;;;;;8.65;2.53;;;;;;;;;;5071941;28;20116;-64
2022/06/14 08:24:12;;;;;;;6.75;2.30;;;;;;;;;;5071993;28;20435;-64
2022/06/14 08:26:42;;;;;;;8.75;2.50;;;;;;;;;;5071415;28;20441;-63
2022/06/14 08:29:13;;;;;;;8.95;2.45;;;;;;;;;;5071930;28;20033;-64
2022/06/14 08:31:52;;;;;;;5.57;2.67;;;;;;;;;;5071811;28;20037;-64
2022/06/14 08:34:21;;;;;;;9.90;2.70;;;;;;;;;;5071940;28;20116;-64
2022/06/14 08:36:47;;;;;;;7.93;2.95;;;;;;;;;;5071766;28;20068;-64
2022/06/14 08:39:18;;;;;;;7.75;2.30;;;;;;;;;;5071761;28;20060;-63
2022/06/14 08:41:47;;;;;;;7.30;2.28;;;;;;;;;;5071347;28;20097;-63
2022/06/14 08:44:24;;;;;;;9.95;3.15;;;;;;;;;;5071882;28;20032;-64
2022/06/14 08:46:51;;;;;;;9.20;2.60;;;;;;;;;;5071618;28;20107;-64
2022/06/14 08:49:36;;;;;;;8.30;2.05;;;;;;;;;;5074468;28;20063;-64
2022/06/14 08:52:20;;;;;;;9.38;2.08;;;;;;;;;;5075507;28;20033;-64
2022/06/14 08:54:49;;;;;;;7.57;2.17;;;;;;;;;;5074988;28;20032;-63
2022/06/14 08:57:25;;;;;;;7.65;2.65;;;;;;;;;;5075228;28;20415;-64
2022/06/14 09:00:11;;;;;;;8.48;2.83;;;;;;;;;;5075168;28;20100;-64
2022/06/14 09:02:37;;;;;;;7.35;2.80;;;;;;;;;;5075297;28;20038;-64
2022/06/14 09:05:26;;;;;;;4.47;2.28;;;;;;;;;;5075078;28;20068;-63
2022/06/14 09:07:52;;;;;;;6.68;2.60;;;;;;;;;;5075094;28;20037;-64
2022/06/14 09:10:31;;;;;;;9.82;2.63;;;;;;;;;;5075409;28;20032;-64
2022/06/14 09:13:15;;;;;;;5.80;2.25;;;;;;;;;;5075089;28;20025;-64
2022/06/14 09:15:41;;;;;;;5.75;2.25;;;;;;;;;;5075057;28;20043;-64
2022/06/14 09:18:12;;;;;;;8.88;2.92;;;;;;;;;;5075097;28;20035;-64
2022/06/14 09:20:56;;;;;;;11.20;3.17;;;;;;;;;;5074908;28;20032;-64
2022/06/14 09:23:28;;;;;;;10.95;2.70;;;;;;;;;;5075014;28;20028;-64
2022/06/14 09:26:13;;;;;;;6.90;2.47;;;;;;;;;;5074375;28;20024;-64
2022/06/14 09:28:45;;;;;;;4.15;2.58;;;;;;;;;;5074630;28;20036;-64
2022/06/14 09:31:30;;;;;;;6.72;2.50;;;;;;;;;;5074869;28;20027;-64
2022/06/14 09:34:15;;;;;;;12.77;3.25;;;;;;;;;;5074563;28;20032;-64
2022/06/14 09:36:42;;;;;;;7.88;2.50;;;;;;;;;;5074506;28;20556;-64
2022/06/14 09:39:26;;;;;;;9.38;2.60;;;;;;;;;;5074443;28;20020;-64
2022/06/14 09:41:55;;;;;;;8.73;2.72;;;;;;;;;;5074450;28;20064;-64
2022/06/14 09:44:21;;;;;;;8.52;2.78;;;;;;;;;;5074430;28;20111;-64
2022/06/14 09:47:06;;;;;;;4.88;2.20;;;;;;;;;;5074640;28;20082;-64
2022/06/14 09:49:51;;;;;;;7.00;1.92;;;;;;;;;;5074436;28;20074;-64
2022/06/14 09:52:32;;;;;;;4.35;2.30;;;;;;;;;;5074684;28;20075;-64
2022/06/14 09:55:04;;;;;;;16.40;3.33;;;;;;;;;;5074091;28;20040;-64
2022/06/14 09:57:33;;;;;;;7.93;2.25;;;;;;;;;;5074164;28;20127;-64
2022/06/14 10:00:16;;;;;;;6.68;2.40;;;;;;;;;;5073472;28;20035;-64
2022/06/14 10:02:42;;;;;;;;;;;;;;;;;;5073447;28;20494;-64
2022/06/14 10:05:14;;;;;;;5.05;2.17;;;;;;;;;;5074108;28;20428;-64
2022/06/14 10:07:40;;;;;;;7.10;2.45;;;;;;;;;;5074062;28;20116;-64
2022/06/14 10:10:13;;;;;;;5.35;2.50;;;;;;;;;;5074067;28;20077;-64
2022/06/14 10:12:39;;;;;;;;;;;;;;;;;;5074592;28;20024;-64
2022/06/14 10:15:32;;;;;;;7.15;2.88;;;;;;;;;;5073726;28;20331;-64
2022/06/14 10:18:12;;;;;;;6.68;2.28;;;;;;;;;;5073753;28;20032;-64
2022/06/14 10:20:40;;;;;;;9.32;3.20;;;;;;;;;;5073908;28;20370;-64
2022/06/14 10:23:06;;;;;;;10.40;3.20;;;;;;;;;;5073859;28;20453;-64
2022/06/14 10:25:32;;;;;;;10.77;2.95;;;;;;;;;;5073900;28;20024;-64
2022/06/14 10:28:13;;;;;;;9.50;2.88;;;;;;;;;;5073530;28;20047;-64
2022/06/14 10:30:55;;;;;;;12.05;3.20;;;;;;;;;;5073670;28;20064;-64
2022/06/14 10:33:45;;;;;;;7.43;2.80;;;;;;;;;;5073714;28;20039;-64
2022/06/14 10:36:29;;;;;;;12.00;2.88;;;;;;;;;;5063446;28;21569;-64
2022/06/14 10:39:15;;;;;;;12.30;3.63;;;;;;;;;;5082416;28;20042;-64
2022/06/14 10:41:53;;;;;;;8.57;2.92;;;;;;;;;;5030190;28;20045;-64
2022/06/14 10:44:19;;;;;;;8.27;2.83;;;;;;;;;;5018093;28;20052;-64
2022/06/14 10:47:06;;;;;;;8.63;2.47;;;;;;;;;;5026713;28;20065;-64
2022/06/14 10:49:32;;;;;;;7.95;3.03;;;;;;;;;;5004327;28;20475;-64
2022/06/14 10:52:01;;;;;;;9.88;3.80;;;;;;;;;;5021420;28;20100;-64
2022/06/14 10:54:39;;;;;;;6.22;1.95;;;;;;;;;;5024667;28;20515;-64
2022/06/14 10:57:13;;;;;;;6.68;2.20;;;;;;;;;;5018540;28;20058;-64
2022/06/14 10:59:58;;;;;;;6.50;2.00;;;;;;;;;;5018227;28;20133;-64
2022/06/14 11:02:27;;;;;;;9.98;2.10;;;;;;;;;;5020642;28;20485;-64
2022/06/14 11:04:53;;;;;;;5.32;2.13;;;;;;;;;;5023479;28;20041;-64
2022/06/14 11:07:42;;;;;;;5.93;2.65;;;;;;;;;;5018496;28;20100;-64
2022/06/14 11:10:11;;;;;;;5.32;2.00;;;;;;;;;;5021593;28;20401;-64
2022/06/14 11:12:37;;;;;;;7.78;2.20;;;;;;;;;;5022045;28;20037;-64
2022/06/14 11:15:11;;;;;;;6.38;1.80;;;;;;;;;;5016679;28;20140;-64
2022/06/14 11:17:55;;;;;;;7.15;2.13;;;;;;;;;;5015191;28;20127;-64
2022/06/14 11:20:32;;;;;;;5.80;1.98;;;;;;;;;;5061295;28;20119;-64
2022/06/14 11:23:07;;;;;;;8.75;2.22;;;;;;;;;;5071482;28;20028;-64
2022/06/14 11:25:46;;;;;;;9.80;2.42;;;;;;;;;;5053848;28;20405;-64
2022/06/14 11:28:24;;;;;;;7.20;2.00;;;;;;;;;;5052056;28;20057;-64
2022/06/14 11:30:56;;;;;;;8.50;1.75;;;;;;;;;;5052584;28;20405;-64
2022/06/14 11:33:31;;;;;;;8.13;2.33;;;;;;;;;;5052053;28;20029;-64
2022/06/14 11:36:06;;;;;;;5.95;1.80;;;;;;;;;;5052064;28;20481;-64
2022/06/14 11:38:52;;;;;;;4.30;1.80;;;;;;;;;;5052291;28;20462;-64
2022/06/14 11:41:21;;;;;;;7.60;2.05;;;;;;;;;;5052128;28;20063;-64
2022/06/14 11:43:50;;;;;;;10.45;2.33;;;;;;;;;;5052363;28;20028;-64
2022/06/14 11:46:16;;;;;;;8.90;2.22;;;;;;;;;;5052129;28;20020;-64
2022/06/14 11:48:49;;;;;;;6.03;1.65;;;;;;;;;;5052042;28;20032;-64
2022/06/14 11:51:15;;;;;;;6.85;2.00;;;;;;;;;;5051782;28;20028;-64
2022/06/14 11:53:48;;;;;;;4.75;1.40;;;;;;;;;;5068769;28;20025;-64
2022/06/14 11:56:17;;;;;;;7.05;1.52;;;;;;;;;;5070485;28;20502;-64
2022/06/14 11:58:43;;;;;;;8.25;2.13;;;;;;;;;;5052115;28;20056;-64
2022/06/14 12:01:15;;;;;;;6.60;2.05;;;;;;;;;;5063783;28;20036;-64
2022/06/14 12:04:00;;;;;;;6.35;2.38;;;;;;;;;;5071924;28;20032;-64
2022/06/14 12:06:41;;;;;;;6.97;1.67;;;;;;;;;;5071946;28;20024;-64
2022/06/14 12:09:10;;;;;;;7.82;1.80;;;;;;;;;;5071947;28;20473;-64
2022/06/14 12:11:41;;;;;;;8.52;2.47;;;;;;;;;;5072240;28;20095;-64
2022/06/14 12:14:07;;;;;;;6.55;1.83;;;;;;;;;;5071865;28;20040;-64
2022/06/14 12:16:33;;;;;;;7.15;2.00;;;;;;;;;;5071873;28;20028;-64
2022/06/14 12:19:06;;;;;;;8.02;2.28;;;;;;;;;;5071847;28;20029;-64
2022/06/14 12:21:40;;;;;;;10.38;2.40;;;;;;;;;;5072051;28;20071;-64
2022/06/14 12:24:10;;;;;;;8.68;2.08;;;;;;;;;;5076016;28;20036;-64
2022/06/14 12:26:46;;;;;;;6.70;2.08;;;;;;;;;;5064494;28;20358;-64
2022/06/14 12:29:27;;;;;;;8.77;2.17;;;;;;;;;;5059987;28;20020;-64
2022/06/14 12:31:59;;;;;;;5.45;2.10;;;;;;;;;;5075980;28;20058;-64
2022/06/14 12:34:58;;;;;;;9.77;2.10;;;;;;;;;;5061598;28;20029;-64
2022/06/14 12:37:43;;;;;;;7.03;2.22;;;;;;;;;;5028127;28;20405;-64
2022/06/14 12:40:25;;;;;;;8.18;2.03;;;;;;;;;;5033384;28;20041;-64
2022/06/14 12:42:51;;;;;;;10.57;2.40;;;;;;;;;;5033864;28;20113;-64
2022/06/14 12:45:27;;;;;;;8.48;2.35;;;;;;;;;;5033370;28;20029;-64
2022/06/14 12:47:58;;;;;;;7.75;2.00;;;;;;;;;;5033091;28;20099;-64
2022/06/14 12:50:31;;;;;;;7.30;1.77;;;;;;;;;;5033377;28;20041;-64
2022/06/14 12:53:09;;;;;;;7.20;2.05;;;;;;;;;;5033645;28;20525;-64
2022/06/14 12:55:37;;;;;;;7.00;1.98;;;;;;;;;;5033502;28;20033;-64
2022/06/14 12:58:11;;;;;;;9.20;2.08;;;;;;;;;;5033058;28;20060;-64
2022/06/14 13:00:55;;;;;;;8.15;2.28;;;;;;;;;;5033127;28;20037;-64
2022/06/14 13:03:39;;;;;;;8.93;2.05;;;;;;;;;;5032734;28;20145;-64
2022/06/14 13:06:26;;;;;;;4.97;2.10;;;;;;;;;;5033203;28;20052;-64
2022/06/14 13:08:58;;;;;;;13.32;2.50;;;;;;;;;;5033250;28;20075;-64
2022/06/14 13:11:30;;;;;;;9.63;2.40;;;;;;;;;;5032666;28;20040;-64
2022/06/14 13:14:14;;;;;;;6.97;2.00;;;;;;;;;;5053065;28;20049;-64
2022/06/14 13:16:59;;;;;;;8.02;1.85;;;;;;;;;;5054837;28;20036;-64
2022/06/14 13:19:37;;;;;;;10.48;1.90;;;;;;;;;;5055118;28;20456;-64
2022/06/14 13:22:43;;;;;;;4.75;2.20;;;;;;;;;;5055015;28;20548;-64
2022/06/14 13:25:21;;;;;;;4.57;1.90;;;;;;;;;;5054596;28;20412;-64
2022/06/14 13:28:06;;;;;;;6.68;2.20;;;;;;;;;;5066972;28;20143;-64
2022/06/14 13:30:44;;;;;;;5.30;1.77;;;;;;;;;;5074625;28;20017;-64
2022/06/14 13:33:28;;;;;;;11.18;1.85;;;;;;;;;;5074883;28;20020;-64
2022/06/14 13:36:14;;;;;;;8.25;2.05;;;;;;;;;;5075331;28;20503;-64
2022/06/14 13:38:50;;;;;;;9.32;2.20;;;;;;;;;;5074767;28;20036;-64
2022/06/14 13:41:28;;;;;;;12.68;2.63;;;;;;;;;;5074506;28;20043;-64
2022/06/14 13:43:54;;;;;;;10.60;2.47;;;;;;;;;;5074718;28;20082;-64
2022/06/14 13:46:26;;;;;;;4.25;1.95;;;;;;;;;;5074005;28;20024;-64
2022/06/14 13:49:15;;;;;;;7.67;1.83;;;;;;;;;;5074637;28;20391;-64
2022/06/14 13:51:48;;;;;;;9.05;2.30;;;;;;;;;;5074514;28;20103;-64
2022/06/14 13:54:31;;;;;;;7.35;2.10;;;;;;;;;;5074363;28;20041;-64
2022/06/14 13:57:09;;;;;;;10.82;2.65;;;;;;;;;;5057680;28;20028;-64
2022/06/14 13:59:37;;;;;;;8.93;2.42;;;;;;;;;;5064052;28;20040;-64
2022/06/14 14:02:24;;;;;;;6.53;2.38;;;;;;;;;;5063327;28;20044;-64
2022/06/14 14:04:50;;;;;;;8.95;1.92;;;;;;;;;;5063971;28;20033;-64
2022/06/14 14:07:34;;;;;;;10.60;2.33;;;;;;;;;;5063197;28;20021;-63
2022/06/14 14:10:19;;;;;;;8.93;2.17;;;;;;;;;;5060418;28;20024;-64
2022/06/14 14:12:45;;;;;;;7.45;1.98;;;;;;;;;;5063742;28;20465;-63
2022/06/14 14:15:30;;;;;;;8.85;1.88;;;;;;;;;;5061826;28;20041;-63
2022/06/14 14:18:02;;;;;;;5.07;2.10;;;;;;;;;;5054324;28;20392;-64
2022/06/14 14:20:31;;;;;;;3.90;2.03;;;;;;;;;;5062091;28;20046;-64
2022/06/14 14:23:10;;;;;;;6.47;2.67;;;;;;;;;;5064942;28;20029;-64
2022/06/14 14:25:43;;;;;;;5.72;2.63;;;;;;;;;;5062302;28;20021;-64
2022/06/14 14:28:12;;;;;;;7.05;2.47;;;;;;;;;;5061321;28;20404;-64
2022/06/14 14:30:38;;;;;;;11.68;3.42;;;;;;;;;;5061884;28;20118;-64
2022/06/14 14:33:07;;;;;;;11.18;2.97;;;;;;;;;;5063464;28;20024;-64
2022/06/14 14:35:38;;;;;;;6.78;3.00;;;;;;;;;;5061337;28;20272;-64
2022/06/14 14:38:09;;;;;;;9.40;3.13;;;;;;;;;;5061090;28;20114;-64
2022/06/14 14:40:37;;;;;;;8.52;3.05;;;;;;;;;;5059880;28;20484;-64
2022/06/14 14:43:09;;;;;;;14.10;4.25;;;;;;;;;;5061996;28;20028;-64
2022/06/14 14:45:40;;;;;;;10.90;2.80;;;;;;;;;;5060587;28;20036;-63
2022/06/14 14:48:09;;;;;;;10.02;2.97;;;;;;;;;;5069820;28;20550;-63
2022/06/14 14:50:54;;;;;;;10.70;3.15;;;;;;;;;;5070804;28;20029;-64
2022/06/14 14:53:37;;;;;;;5.65;2.33;;;;;;;;;;5055404;28;20567;-63
2022/06/14 14:56:03;;;;;;;;;;;;;;;;;;5062249;28;20041;-64
2022/06/14 14:58:35;;;;;;;8.55;3.20;;;;;;;;;;5059343;28;19924;-64
2022/06/14 15:07:02;;;;;;;12.23;3.97;;;;;;;;;;5052838;28;20504;-64
2022/06/14 15:09:31;;;;;;;8.13;2.60;;;;;;;;;;5052524;28;20036;-64
2022/06/14 15:11:58;;;;;;;12.68;2.60;;;;;;;;;;5052815;28;20508;-64
2022/06/14 15:14:25;;;;;;;7.60;3.00;;;;;;;;;;5060898;28;20036;-63
2022/06/14 15:19:54;;;;;;;10.18;2.47;;;;;;;;;;5053102;28;20041;-63
2022/06/14 15:22:23;;;;;;;7.82;2.45;;;;;;;;;;5052426;28;20072;-64
2022/06/14 15:24:51;;;;;;;8.05;1.70;;;;;;;;;;5052414;28;20098;-64
2022/06/14 15:27:19;;;;;;;7.00;2.30;;;;;;;;;;5052145;28;20476;-63
2022/06/14 15:29:49;;;;;;;7.68;2.10;;;;;;;;;;5054920;28;20032;-64
2022/06/14 15:32:23;;;;;;;4.80;1.77;;;;;;;;;;5063777;28;20036;-64
2022/06/14 15:34:51;;;;;;;10.13;2.50;;;;;;;;;;5059859;28;20404;-63
2022/06/14 15:37:25;;;;;;;3.88;1.70;;;;;;;;;;5061012;28;20477;-64
2022/06/14 15:39:59;;;;;;;4.32;1.90;;;;;;;;;;5063406;28;20064;-63
2022/06/14 15:42:28;;;;;;;5.45;2.00;;;;;;;;;;5058517;28;20033;-64